createdAt,value
2019-05-09T00:00:49.535Z,0.00
2019-05-09T00:02:10.509Z,0.00
2019-05-09T00:02:49.492Z,0.00
2019-05-09T00:03:49.467Z,0.00
2019-05-09T00:04:49.451Z,0.00
2019-05-09T00:05:49.422Z,0.00
2019-05-09T00:06:49.410Z,0.00
2019-05-09T00:08:10.384Z,0.00
2019-05-09T00:08:49.400Z,0.00
2019-05-09T00:09:49.336Z,0.00
2019-05-09T00:10:49.319Z,0.00
2019-05-09T00:11:49.306Z,0.00
2019-05-09T00:12:49.271Z,0.00
2019-05-09T00:14:10.261Z,0.00
2019-05-09T00:14:49.242Z,0.00
2019-05-09T00:15:49.207Z,0.00
2019-05-09T00:16:49.187Z,0.00
2019-05-09T00:17:49.169Z,0.00
2019-05-09T00:18:49.143Z,0.00
2019-05-09T00:20:10.137Z,0.00
2019-05-09T00:20:49.098Z,0.00
2019-05-09T00:21:49.075Z,0.00
2019-05-09T00:22:49.053Z,0.00
2019-05-09T00:23:49.050Z,0.00
2019-05-09T00:24:49.018Z,0.00
2019-05-09T00:26:09.991Z,0.00
2019-05-09T00:26:48.972Z,0.00
2019-05-09T00:27:48.957Z,0.00
2019-05-09T00:28:48.932Z,0.00
2019-05-09T00:29:48.906Z,0.00
2019-05-09T00:30:48.886Z,0.00
2019-05-09T00:32:09.867Z,0.00
2019-05-09T00:32:48.851Z,0.00
2019-05-09T00:33:48.828Z,0.00
2019-05-09T00:34:48.802Z,0.00
2019-05-09T00:35:48.780Z,0.00
2019-05-09T00:36:48.755Z,0.00
2019-05-09T00:38:09.758Z,0.00
2019-05-09T00:38:48.716Z,0.00
2019-05-09T00:39:48.691Z,0.00
2019-05-09T00:40:56.005Z,0.00
2019-05-09T00:41:48.653Z,0.00
2019-05-09T00:42:48.624Z,0.00
2019-05-09T00:44:09.606Z,0.00
2019-05-09T00:44:48.579Z,0.00
2019-05-09T00:45:48.567Z,0.00
2019-05-09T00:46:48.549Z,0.00
2019-05-09T00:47:48.523Z,0.00
2019-05-09T00:48:48.494Z,0.00
2019-05-09T00:50:09.474Z,0.00
2019-05-09T00:50:48.448Z,0.00
2019-05-09T00:51:48.430Z,0.00
2019-05-09T00:52:48.408Z,0.00
2019-05-09T00:53:48.379Z,0.00
2019-05-09T00:54:48.358Z,0.00
2019-05-09T00:56:09.339Z,0.00
2019-05-09T00:56:48.316Z,0.00
2019-05-09T00:57:48.300Z,0.00
2019-05-09T00:58:48.278Z,0.00
2019-05-09T00:59:48.256Z,0.00
2019-05-09T01:00:48.255Z,0.00
2019-05-09T01:02:09.210Z,0.00
2019-05-09T01:02:48.190Z,0.00
2019-05-09T01:03:48.172Z,0.00
2019-05-09T01:04:48.143Z,0.00
2019-05-09T01:05:48.124Z,0.00
2019-05-09T01:06:48.096Z,0.00
2019-05-09T01:08:09.080Z,0.00
2019-05-09T01:08:48.051Z,0.00
2019-05-09T01:09:48.035Z,0.00
2019-05-09T01:10:48.026Z,0.00
2019-05-09T01:11:47.988Z,0.00
2019-05-09T01:12:47.971Z,0.00
2019-05-09T01:14:08.945Z,0.00
2019-05-09T01:14:47.929Z,0.00
2019-05-09T01:15:47.904Z,0.00
2019-05-09T01:16:47.875Z,0.00
2019-05-09T01:17:47.852Z,0.00
2019-05-09T01:18:47.836Z,0.00
2019-05-09T01:20:08.813Z,0.00
2019-05-09T01:20:47.785Z,0.00
2019-05-09T01:21:47.767Z,0.00
2019-05-09T01:22:47.758Z,0.00
2019-05-09T01:23:47.726Z,0.00
2019-05-09T01:24:47.700Z,0.00
2019-05-09T01:26:08.683Z,0.00
2019-05-09T01:26:47.659Z,0.00
2019-05-09T01:27:47.652Z,0.00
2019-05-09T01:28:47.615Z,0.00
2019-05-09T01:29:48.316Z,0.00
2019-05-09T01:30:47.566Z,0.00
2019-05-09T01:32:08.585Z,0.00
2019-05-09T01:32:47.531Z,0.00
2019-05-09T01:33:47.512Z,0.00
2019-05-09T01:34:47.484Z,0.00
2019-05-09T01:35:47.458Z,0.00
2019-05-09T01:36:47.442Z,0.00
2019-05-09T01:38:08.414Z,0.00
2019-05-09T01:38:47.399Z,0.00
2019-05-09T01:39:47.378Z,0.00
2019-05-09T01:40:47.354Z,0.00
2019-05-09T01:41:47.326Z,0.00
2019-05-09T01:42:47.307Z,0.00
2019-05-09T01:44:08.308Z,0.00
2019-05-09T01:44:47.262Z,0.00
2019-05-09T01:45:47.274Z,0.00
2019-05-09T01:46:47.223Z,0.00
2019-05-09T01:47:47.236Z,0.00
2019-05-09T01:48:47.169Z,0.00
2019-05-09T01:50:08.148Z,0.00
2019-05-09T01:50:47.125Z,0.00
2019-05-09T01:51:47.106Z,0.00
2019-05-09T01:52:47.093Z,0.00
2019-05-09T01:53:47.068Z,0.00
2019-05-09T01:54:47.039Z,0.00
2019-05-09T01:56:08.042Z,0.00
2019-05-09T01:56:47.001Z,0.00
2019-05-09T01:57:47.992Z,0.00
2019-05-09T01:58:46.955Z,0.00
2019-05-09T01:59:46.939Z,0.00
2019-05-09T02:00:46.907Z,0.00
2019-05-09T02:02:08.931Z,0.00
2019-05-09T02:02:46.869Z,0.00
2019-05-09T02:03:46.840Z,0.00
2019-05-09T02:04:46.827Z,0.00
2019-05-09T02:05:46.803Z,0.00
2019-05-09T02:06:46.779Z,0.00
2019-05-09T02:08:07.763Z,0.00
2019-05-09T02:08:46.737Z,0.00
2019-05-09T02:09:46.715Z,0.00
2019-05-09T02:10:46.682Z,0.00
2019-05-09T02:11:46.670Z,0.00
2019-05-09T02:12:46.664Z,0.00
2019-05-09T02:14:07.644Z,0.00
2019-05-09T02:14:46.599Z,0.00
2019-05-09T02:15:46.591Z,0.00
2019-05-09T02:16:46.566Z,0.00
2019-05-09T02:17:57.868Z,0.00
2019-05-09T02:18:46.517Z,0.00
2019-05-09T02:20:07.494Z,0.00
2019-05-09T02:20:46.468Z,0.00
2019-05-09T02:21:46.449Z,0.00
2019-05-09T02:22:46.426Z,0.00
2019-05-09T02:23:46.401Z,0.00
2019-05-09T02:24:46.396Z,0.00
2019-05-09T02:26:07.367Z,0.00
2019-05-09T02:26:46.342Z,0.00
2019-05-09T02:27:46.314Z,0.00
2019-05-09T02:28:46.295Z,0.00
2019-05-09T02:29:46.311Z,0.00
2019-05-09T02:30:46.250Z,0.00
2019-05-09T02:32:07.233Z,0.00
2019-05-09T02:32:46.209Z,0.00
2019-05-09T02:33:46.188Z,0.00
2019-05-09T02:34:46.174Z,0.00
2019-05-09T02:35:56.407Z,0.00
2019-05-09T02:36:49.384Z,0.00
2019-05-09T02:38:09.448Z,0.00
2019-05-09T02:38:48.731Z,0.00
2019-05-09T02:39:48.902Z,0.00
2019-05-09T02:40:48.528Z,0.00
2019-05-09T02:42:01.190Z,0.00
2019-05-09T02:42:48.996Z,0.00
2019-05-09T02:44:09.336Z,0.00
2019-05-09T02:44:48.971Z,0.00
2019-05-09T02:45:52.308Z,0.00
2019-05-09T02:46:49.095Z,0.00
2019-05-09T02:47:48.842Z,0.00
2019-05-09T02:48:49.242Z,0.00
2019-05-09T02:50:09.110Z,0.00
2019-05-09T02:50:48.588Z,0.00
2019-05-09T02:51:48.569Z,0.00
2019-05-09T02:52:48.473Z,0.00
2019-05-09T02:53:48.472Z,0.00
2019-05-09T02:54:45.719Z,0.00
2019-05-09T02:56:09.164Z,0.00
2019-05-09T02:56:45.680Z,0.00
2019-05-09T02:57:48.765Z,0.00
2019-05-09T02:58:48.421Z,0.00
2019-05-09T02:59:45.604Z,0.00
2019-05-09T03:00:48.010Z,0.00
2019-05-09T03:02:09.246Z,0.00
2019-05-09T03:02:48.480Z,0.00
2019-05-09T03:03:48.071Z,0.00
2019-05-09T03:04:45.538Z,0.00
2019-05-09T03:05:48.502Z,0.00
2019-05-09T03:06:45.451Z,0.00
2019-05-09T03:08:09.133Z,0.00
2019-05-09T03:08:48.836Z,0.00
2019-05-09T03:09:47.805Z,0.00
2019-05-09T03:10:48.792Z,0.00
2019-05-09T03:11:48.301Z,0.00
2019-05-09T03:12:45.350Z,0.00
2019-05-09T03:14:09.114Z,0.00
2019-05-09T03:14:45.283Z,0.00
2019-05-09T03:15:45.248Z,4.00
2019-05-09T03:16:48.862Z,4.00
2019-05-09T03:17:45.209Z,4.00
2019-05-09T03:18:45.187Z,0.00
2019-05-09T03:20:09.243Z,4.00
2019-05-09T03:20:45.143Z,4.00
2019-05-09T03:21:45.116Z,4.00
2019-05-09T03:22:45.097Z,8.00
2019-05-09T03:23:45.091Z,4.00
2019-05-09T03:24:48.310Z,4.00
2019-05-09T03:26:08.428Z,8.00
2019-05-09T03:26:45.019Z,8.00
2019-05-09T03:27:44.983Z,8.00
2019-05-09T03:28:44.966Z,8.00
2019-05-09T03:29:44.933Z,8.00
2019-05-09T03:30:44.918Z,12.00
2019-05-09T03:32:09.078Z,12.00
2019-05-09T03:32:44.873Z,12.00
2019-05-09T03:33:44.856Z,16.00
2019-05-09T03:34:44.869Z,16.00
2019-05-09T03:35:44.811Z,20.00
2019-05-09T03:36:44.789Z,24.00
2019-05-09T03:38:07.815Z,28.00
2019-05-09T03:38:44.745Z,32.00
2019-05-09T03:39:44.713Z,44.00
2019-05-09T03:40:44.713Z,52.00
2019-05-09T03:41:44.681Z,60.00
2019-05-09T03:42:44.653Z,68.00
2019-05-09T03:44:07.331Z,76.00
2019-05-09T03:44:44.612Z,88.00
2019-05-09T03:45:44.585Z,92.00
2019-05-09T03:46:44.562Z,96.00
2019-05-09T03:47:44.543Z,100.00
2019-05-09T03:48:44.524Z,112.00
2019-05-09T03:50:05.502Z,120.00
2019-05-09T03:50:44.479Z,128.00
2019-05-09T03:51:44.456Z,132.00
2019-05-09T03:52:44.438Z,140.00
2019-05-09T03:53:44.416Z,156.00
2019-05-09T03:54:44.383Z,168.00
2019-05-09T03:56:07.804Z,188.00
2019-05-09T03:56:44.341Z,212.00
2019-05-09T03:57:44.326Z,232.00
2019-05-09T03:58:44.302Z,264.00
2019-05-09T03:59:44.277Z,288.00
2019-05-09T04:00:44.258Z,304.00
2019-05-09T04:02:09.924Z,332.00
2019-05-09T04:02:44.216Z,348.00
2019-05-09T04:03:44.218Z,356.00
2019-05-09T04:04:44.171Z,356.00
2019-05-09T04:05:55.518Z,360.00
2019-05-09T04:06:44.126Z,388.00
2019-05-09T04:08:07.303Z,412.00
2019-05-09T04:08:44.088Z,432.00
2019-05-09T04:09:44.060Z,452.00
2019-05-09T04:10:44.040Z,476.00
2019-05-09T04:11:44.014Z,488.00
2019-05-09T04:12:53.893Z,496.00
2019-05-09T04:14:04.973Z,488.00
2019-05-09T04:14:43.948Z,484.00
2019-05-09T04:15:43.934Z,468.00
2019-05-09T04:16:43.912Z,440.00
2019-05-09T04:17:43.890Z,408.00
2019-05-09T04:18:43.861Z,396.00
2019-05-09T04:20:04.852Z,408.00
2019-05-09T04:20:43.825Z,416.00
2019-05-09T04:21:43.825Z,392.00
2019-05-09T04:22:43.781Z,376.00
2019-05-09T04:23:43.750Z,376.00
2019-05-09T04:24:43.728Z,404.00
2019-05-09T04:26:04.714Z,452.00
2019-05-09T04:26:43.692Z,476.00
2019-05-09T04:27:43.714Z,472.00
2019-05-09T04:28:43.644Z,452.00
2019-05-09T04:29:43.625Z,420.00
2019-05-09T04:30:43.607Z,408.00
2019-05-09T04:32:04.580Z,372.00
2019-05-09T04:32:43.559Z,332.00
2019-05-09T04:33:43.533Z,308.00
2019-05-09T04:34:43.515Z,296.00
2019-05-09T04:35:43.498Z,180.00
2019-05-09T04:36:43.511Z,308.00
2019-05-09T04:38:04.457Z,356.00
2019-05-09T04:38:43.431Z,424.00
2019-05-09T04:39:43.405Z,476.00
2019-05-09T04:40:45.005Z,540.00
2019-05-09T04:41:43.377Z,632.00
2019-05-09T04:42:44.499Z,792.00
2019-05-09T04:44:05.084Z,1000.00
2019-05-09T04:44:43.298Z,1132.00
2019-05-09T04:45:43.278Z,1292.00
2019-05-09T04:46:43.255Z,1396.00
2019-05-09T04:47:43.619Z,1412.00
2019-05-09T04:48:43.214Z,1500.00
2019-05-09T04:50:04.192Z,1532.00
2019-05-09T04:50:43.162Z,1376.00
2019-05-09T04:51:43.161Z,1368.00
2019-05-09T04:52:43.128Z,1580.00
2019-05-09T04:53:43.098Z,2004.00
2019-05-09T04:54:43.086Z,2492.00
2019-05-09T04:56:04.066Z,2936.00
2019-05-09T04:56:43.038Z,3032.00
2019-05-09T04:57:43.022Z,2828.00
2019-05-09T04:58:42.994Z,2616.00
2019-05-09T04:59:42.979Z,2508.00
2019-05-09T05:00:42.956Z,2144.00
2019-05-09T05:02:03.931Z,1896.00
2019-05-09T05:02:42.911Z,1828.00
2019-05-09T05:03:42.889Z,1760.00
2019-05-09T05:04:42.863Z,1632.00
2019-05-09T05:05:42.847Z,1532.00
2019-05-09T05:06:42.825Z,1516.00
2019-05-09T05:08:03.821Z,1524.00
2019-05-09T05:08:42.828Z,1576.00
2019-05-09T05:09:42.764Z,1672.00
2019-05-09T05:10:42.739Z,1696.00
2019-05-09T05:11:42.718Z,1724.00
2019-05-09T05:12:42.698Z,1808.00
2019-05-09T05:14:03.677Z,1896.00
2019-05-09T05:14:42.646Z,1960.00
2019-05-09T05:15:42.637Z,2076.00
2019-05-09T05:16:42.643Z,2168.00
2019-05-09T05:17:42.593Z,2336.00
2019-05-09T05:18:42.574Z,2336.00
2019-05-09T05:20:03.551Z,2164.00
2019-05-09T05:20:42.528Z,2076.00
2019-05-09T05:21:42.498Z,2008.00
2019-05-09T05:22:42.479Z,2008.00
2019-05-09T05:23:42.463Z,2032.00
2019-05-09T05:24:42.439Z,2060.00
2019-05-09T05:26:03.420Z,2064.00
2019-05-09T05:26:42.396Z,2056.00
2019-05-09T05:27:42.394Z,2104.00
2019-05-09T05:28:42.362Z,2292.00
2019-05-09T05:29:42.333Z,2900.00
2019-05-09T05:30:42.311Z,3672.00
2019-05-09T05:32:03.298Z,3220.00
2019-05-09T05:32:42.282Z,2660.00
2019-05-09T05:33:42.247Z,2504.00
2019-05-09T05:34:42.230Z,2508.00
2019-05-09T05:35:42.208Z,2448.00
2019-05-09T05:36:42.186Z,2560.00
2019-05-09T05:38:03.164Z,2828.00
2019-05-09T05:38:42.141Z,2852.00
2019-05-09T05:39:42.125Z,2880.00
2019-05-09T05:40:46.256Z,2904.00
2019-05-09T05:41:42.080Z,2940.00
2019-05-09T05:42:42.093Z,2980.00
2019-05-09T05:44:03.036Z,3044.00
2019-05-09T05:44:42.008Z,3412.00
2019-05-09T05:45:41.990Z,3476.00
2019-05-09T05:46:41.968Z,3712.00
2019-05-09T05:47:41.954Z,5076.00
2019-05-09T05:48:41.935Z,6976.00
2019-05-09T05:50:02.904Z,7892.00
2019-05-09T05:50:41.887Z,9204.00
2019-05-09T05:51:41.897Z,11024.00
2019-05-09T05:52:41.917Z,10672.00
2019-05-09T05:53:41.817Z,9836.00
2019-05-09T05:54:41.809Z,9580.00
2019-05-09T05:56:02.817Z,7984.00
2019-05-09T05:56:41.759Z,8056.00
2019-05-09T05:57:41.740Z,8720.00
2019-05-09T05:58:41.719Z,7972.00
2019-05-09T05:59:41.708Z,7940.00
2019-05-09T06:00:41.676Z,9044.00
2019-05-09T06:02:02.691Z,8948.00
2019-05-09T06:02:41.669Z,8376.00
2019-05-09T06:03:41.615Z,8552.00
2019-05-09T06:04:41.599Z,8920.00
2019-05-09T06:05:41.578Z,8860.00
2019-05-09T06:06:41.580Z,8200.00
2019-05-09T06:08:02.562Z,7008.00
2019-05-09T06:08:41.512Z,5344.00
2019-05-09T06:09:41.503Z,3644.00
2019-05-09T06:10:41.485Z,3788.00
2019-05-09T06:11:41.457Z,4244.00
2019-05-09T06:12:41.443Z,4964.00
2019-05-09T06:14:08.331Z,5508.00
2019-05-09T06:14:41.404Z,5364.00
2019-05-09T06:15:41.382Z,5516.00
2019-05-09T06:16:41.364Z,6360.00
2019-05-09T06:17:41.354Z,7092.00
2019-05-09T06:18:41.324Z,6776.00
2019-05-09T06:20:02.420Z,8092.00
2019-05-09T06:20:41.281Z,10536.00
2019-05-09T06:21:41.257Z,12332.00
2019-05-09T06:22:41.258Z,11800.00
2019-05-09T06:23:41.245Z,10776.00
2019-05-09T06:24:41.206Z,9484.00
2019-05-09T06:26:02.315Z,9220.00
2019-05-09T06:26:41.164Z,9716.00
2019-05-09T06:27:42.464Z,9752.00
2019-05-09T06:28:41.131Z,9180.00
2019-05-09T06:29:41.109Z,9972.00
2019-05-09T06:30:41.366Z,10976.00
2019-05-09T06:32:02.078Z,11668.00
2019-05-09T06:32:41.052Z,12216.00
2019-05-09T06:33:46.453Z,12124.00
2019-05-09T06:34:42.166Z,11944.00
2019-05-09T06:35:40.996Z,10388.00
2019-05-09T06:36:40.971Z,9296.00
2019-05-09T06:38:01.956Z,8216.00
2019-05-09T06:38:40.951Z,8156.00
2019-05-09T06:39:40.926Z,8308.00
2019-05-09T06:40:40.914Z,9040.00
2019-05-09T06:41:40.886Z,9808.00
2019-05-09T06:42:40.866Z,11040.00
2019-05-09T06:44:13.133Z,11636.00
2019-05-09T06:44:40.831Z,12884.00
2019-05-09T06:45:41.641Z,15004.00
2019-05-09T06:46:40.799Z,14840.00
2019-05-09T06:47:40.770Z,15600.00
2019-05-09T06:48:40.757Z,16228.00
2019-05-09T06:50:01.741Z,17920.00
2019-05-09T06:50:40.715Z,15840.00
2019-05-09T06:51:40.700Z,13052.00
2019-05-09T06:52:40.677Z,9964.00
2019-05-09T06:53:40.664Z,7396.00
2019-05-09T06:54:41.647Z,5736.00
2019-05-09T06:56:01.633Z,4692.00
2019-05-09T06:56:40.614Z,4100.00
2019-05-09T06:57:43.107Z,3668.00
2019-05-09T06:58:40.586Z,3512.00
2019-05-09T06:59:40.563Z,3396.00
2019-05-09T07:00:40.541Z,3400.00
2019-05-09T07:02:01.537Z,3948.00
2019-05-09T07:02:40.503Z,4100.00
2019-05-09T07:03:40.488Z,4300.00
2019-05-09T07:04:40.464Z,5068.00
2019-05-09T07:05:40.445Z,6304.00
2019-05-09T07:06:40.426Z,8052.00
2019-05-09T07:08:01.416Z,9428.00
2019-05-09T07:08:40.397Z,10496.00
2019-05-09T07:09:40.384Z,10588.00
2019-05-09T07:10:40.356Z,10340.00
2019-05-09T07:11:40.337Z,9688.00
2019-05-09T07:12:40.315Z,9348.00
2019-05-09T07:14:01.296Z,9288.00
2019-05-09T07:14:41.810Z,9640.00
2019-05-09T07:15:40.254Z,9772.00
2019-05-09T07:16:40.250Z,9804.00
2019-05-09T07:17:40.218Z,9748.00
2019-05-09T07:18:40.196Z,9476.00
2019-05-09T07:20:01.189Z,9096.00
2019-05-09T07:20:40.165Z,8660.00
2019-05-09T07:21:40.154Z,8140.00
2019-05-09T07:22:40.129Z,7612.00
2019-05-09T07:23:40.104Z,6960.00
2019-05-09T07:24:40.087Z,6220.00
2019-05-09T07:26:01.065Z,5620.00
2019-05-09T07:26:40.048Z,5088.00
2019-05-09T07:27:40.035Z,4636.00
2019-05-09T07:28:40.017Z,4224.00
2019-05-09T07:29:39.990Z,3792.00
2019-05-09T07:30:40.033Z,3392.00
2019-05-09T07:32:00.953Z,3100.00
2019-05-09T07:32:39.934Z,3008.00
2019-05-09T07:33:39.977Z,3120.00
2019-05-09T07:34:39.900Z,3496.00
2019-05-09T07:35:39.877Z,3988.00
2019-05-09T07:36:39.859Z,4520.00
2019-05-09T07:38:00.844Z,5096.00
2019-05-09T07:38:39.806Z,5760.00
2019-05-09T07:39:39.793Z,6376.00
2019-05-09T07:40:39.781Z,6780.00
2019-05-09T07:41:39.764Z,6852.00
2019-05-09T07:42:39.735Z,6608.00
2019-05-09T07:44:00.719Z,6568.00
2019-05-09T07:44:48.419Z,6664.00
2019-05-09T07:45:39.677Z,6624.00
2019-05-09T07:46:39.665Z,6436.00
2019-05-09T07:47:39.648Z,6232.00
2019-05-09T07:48:39.619Z,6304.00
2019-05-09T07:50:00.601Z,7044.00
2019-05-09T07:50:39.572Z,7680.00
2019-05-09T07:51:39.555Z,8408.00
2019-05-09T07:52:39.535Z,9476.00
2019-05-09T07:53:39.520Z,10624.00
2019-05-09T07:54:39.499Z,11144.00
2019-05-09T07:56:00.478Z,11456.00
2019-05-09T07:56:39.471Z,12636.00
2019-05-09T07:57:46.103Z,14228.00
2019-05-09T07:58:39.418Z,15624.00
2019-05-09T07:59:39.401Z,16116.00
2019-05-09T08:00:39.376Z,16872.00
2019-05-09T08:02:00.361Z,17408.00
2019-05-09T08:02:39.337Z,15936.00
2019-05-09T08:03:39.333Z,13112.00
2019-05-09T08:04:39.303Z,12172.00
2019-05-09T08:05:39.280Z,11748.00
2019-05-09T08:06:39.262Z,11048.00
2019-05-09T08:08:00.242Z,10688.00
2019-05-09T08:08:39.225Z,10688.00
2019-05-09T08:09:39.214Z,10528.00
2019-05-09T08:10:39.183Z,10228.00
2019-05-09T08:11:39.168Z,9768.00
2019-05-09T08:12:39.155Z,9420.00
2019-05-09T08:14:00.140Z,9360.00
2019-05-09T08:14:39.113Z,9468.00
2019-05-09T08:15:39.088Z,9636.00
2019-05-09T08:16:39.076Z,9620.00
2019-05-09T08:17:39.075Z,9488.00
2019-05-09T08:18:39.037Z,9680.00
2019-05-09T08:20:00.025Z,10176.00
2019-05-09T08:20:40.773Z,10812.00
2019-05-09T08:21:39.027Z,11596.00
2019-05-09T08:22:41.222Z,12596.00
2019-05-09T08:23:38.945Z,13688.00
2019-05-09T08:24:38.926Z,14404.00
2019-05-09T08:26:04.160Z,14824.00
2019-05-09T08:26:39.495Z,14660.00
2019-05-09T08:27:38.926Z,14260.00
2019-05-09T08:28:39.277Z,14296.00
2019-05-09T08:29:38.913Z,14000.00
2019-05-09T08:30:40.318Z,12960.00
2019-05-09T08:31:59.798Z,13236.00
2019-05-09T08:32:38.774Z,14580.00
2019-05-09T08:33:38.764Z,15728.00
2019-05-09T08:34:38.743Z,16464.00
2019-05-09T08:35:38.724Z,16576.00
2019-05-09T08:36:38.706Z,16332.00
2019-05-09T08:37:59.688Z,16384.00
2019-05-09T08:38:39.272Z,14384.00
2019-05-09T08:39:38.642Z,13640.00
2019-05-09T08:40:38.709Z,15572.00
2019-05-09T08:41:38.737Z,18144.00
2019-05-09T08:42:38.607Z,18560.00
2019-05-09T08:43:59.588Z,17760.00
2019-05-09T08:44:42.003Z,16388.00
2019-05-09T08:45:38.541Z,16324.00
2019-05-09T08:46:38.518Z,17344.00
2019-05-09T08:47:38.550Z,17984.00
2019-05-09T08:48:38.489Z,19520.00
2019-05-09T08:49:59.467Z,21344.00
2019-05-09T08:50:39.120Z,22912.00
2019-05-09T08:51:51.862Z,26112.00
2019-05-09T08:52:38.419Z,30080.00
2019-05-09T08:53:38.400Z,31936.00
2019-05-09T08:54:38.380Z,31328.00
2019-05-09T08:55:59.365Z,28160.00
2019-05-09T08:56:38.852Z,24032.00
2019-05-09T08:57:38.336Z,21504.00
2019-05-09T08:58:38.398Z,20928.00
2019-05-09T08:59:38.481Z,21120.00
2019-05-09T09:00:39.102Z,23232.00
2019-05-09T09:02:13.960Z,27328.00
2019-05-09T09:02:38.246Z,28064.00
2019-05-09T09:03:38.233Z,26208.00
2019-05-09T09:04:38.565Z,27104.00
2019-05-09T09:05:38.438Z,22048.00
2019-05-09T09:06:38.207Z,21152.00
2019-05-09T09:07:59.178Z,23008.00
2019-05-09T09:08:38.194Z,19616.00
2019-05-09T09:09:38.149Z,14568.00
2019-05-09T09:10:38.733Z,12208.00
2019-05-09T09:11:38.650Z,14236.00
2019-05-09T09:12:38.555Z,17728.00
2019-05-09T09:13:59.080Z,19488.00
2019-05-09T09:14:38.602Z,18176.00
2019-05-09T09:16:02.938Z,17312.00
2019-05-09T09:16:39.020Z,18752.00
2019-05-09T09:17:38.669Z,16688.00
2019-05-09T09:18:38.744Z,16032.00
2019-05-09T09:19:58.981Z,15148.00
2019-05-09T09:20:38.241Z,12744.00
2019-05-09T09:21:38.860Z,14104.00
2019-05-09T09:22:37.938Z,17600.00
2019-05-09T09:23:44.051Z,19328.00
2019-05-09T09:24:37.900Z,19136.00
2019-05-09T09:25:58.881Z,18112.00
2019-05-09T09:26:38.267Z,16072.00
2019-05-09T09:27:38.155Z,16464.00
2019-05-09T09:28:38.108Z,16184.00
2019-05-09T09:29:38.225Z,16532.00
2019-05-09T09:30:38.803Z,17472.00
2019-05-09T09:31:58.786Z,18656.00
2019-05-09T09:32:38.779Z,19488.00
2019-05-09T09:33:37.877Z,20224.00
2019-05-09T09:34:38.063Z,20256.00
2019-05-09T09:35:38.337Z,20032.00
2019-05-09T09:36:39.078Z,19328.00
2019-05-09T09:37:58.686Z,19264.00
2019-05-09T09:38:37.707Z,19520.00
2019-05-09T09:39:44.634Z,20064.00
2019-05-09T09:40:38.483Z,19872.00
2019-05-09T09:41:38.582Z,19072.00
2019-05-09T09:42:39.775Z,17952.00
2019-05-09T09:43:58.617Z,16080.00
2019-05-09T09:44:39.295Z,13628.00
2019-05-09T09:45:37.874Z,11012.00
2019-05-09T09:46:37.580Z,10292.00
2019-05-09T09:47:39.403Z,10876.00
2019-05-09T09:48:38.835Z,10596.00
2019-05-09T09:50:00.396Z,9408.00
2019-05-09T09:50:38.311Z,9844.00
2019-05-09T09:51:38.284Z,10152.00
2019-05-09T09:52:38.556Z,9916.00
2019-05-09T09:53:38.470Z,9608.00
2019-05-09T09:54:38.529Z,9352.00
2019-05-09T09:56:00.203Z,9108.00
2019-05-09T09:56:38.613Z,8760.00
2019-05-09T09:57:37.810Z,8572.00
2019-05-09T09:58:37.911Z,8364.00
2019-05-09T09:59:38.581Z,8348.00
2019-05-09T10:00:38.230Z,8312.00
2019-05-09T10:01:58.499Z,8100.00
2019-05-09T10:02:37.876Z,7940.00
2019-05-09T10:03:37.256Z,8004.00
2019-05-09T10:04:37.602Z,8504.00
2019-05-09T10:05:38.050Z,8652.00
2019-05-09T10:06:38.803Z,8400.00
2019-05-09T10:07:58.310Z,7992.00
2019-05-09T10:08:39.502Z,7772.00
2019-05-09T10:09:37.941Z,7692.00
2019-05-09T10:10:37.137Z,7640.00
2019-05-09T10:11:37.102Z,7636.00
2019-05-09T10:12:43.533Z,8032.00
2019-05-09T10:13:58.505Z,8780.00
2019-05-09T10:14:37.058Z,8948.00
2019-05-09T10:15:38.421Z,8680.00
2019-05-09T10:16:39.026Z,9528.00
2019-05-09T10:17:38.669Z,12028.00
2019-05-09T10:18:38.154Z,13792.00
2019-05-09T10:19:57.955Z,15232.00
2019-05-09T10:20:38.541Z,15788.00
2019-05-09T10:21:38.193Z,15916.00
2019-05-09T10:22:44.605Z,17344.00
2019-05-09T10:23:37.859Z,18848.00
2019-05-09T10:24:36.863Z,20160.00
2019-05-09T10:25:58.245Z,20960.00
2019-05-09T10:26:39.033Z,22528.00
2019-05-09T10:27:38.718Z,22656.00
2019-05-09T10:28:38.025Z,20704.00
2019-05-09T10:29:38.739Z,20288.00
2019-05-09T10:30:38.266Z,18848.00
2019-05-09T10:31:58.003Z,17504.00
2019-05-09T10:32:38.327Z,16516.00
2019-05-09T10:33:37.501Z,16744.00
2019-05-09T10:34:37.806Z,17856.00
2019-05-09T10:35:38.974Z,19008.00
2019-05-09T10:36:38.504Z,20800.00
2019-05-09T10:37:58.932Z,21792.00
2019-05-09T10:38:38.577Z,21472.00
2019-05-09T10:39:38.118Z,20992.00
2019-05-09T10:40:40.052Z,21664.00
2019-05-09T10:41:37.627Z,20384.00
2019-05-09T10:42:37.939Z,20960.00
2019-05-09T10:43:57.979Z,20320.00
2019-05-09T10:44:37.493Z,19200.00
2019-05-09T10:45:40.783Z,16696.00
2019-05-09T10:46:52.079Z,15292.00
2019-05-09T10:47:37.761Z,15652.00
2019-05-09T10:48:38.596Z,17472.00
2019-05-09T10:49:58.178Z,20704.00
2019-05-09T10:50:43.021Z,24224.00
2019-05-09T10:51:36.402Z,22432.00
2019-05-09T10:52:36.385Z,21408.00
2019-05-09T10:53:36.372Z,18816.00
2019-05-09T10:54:36.358Z,15116.00
2019-05-09T10:55:57.343Z,12744.00
2019-05-09T10:56:38.379Z,10364.00
2019-05-09T10:57:41.617Z,8764.00
2019-05-09T10:58:37.420Z,7992.00
2019-05-09T10:59:37.654Z,7268.00
2019-05-09T11:00:39.374Z,6872.00
2019-05-09T11:01:57.951Z,6892.00
2019-05-09T11:02:36.227Z,7128.00
2019-05-09T11:03:37.638Z,9656.00
2019-05-09T11:04:37.934Z,12528.00
2019-05-09T11:05:36.193Z,12216.00
2019-05-09T11:06:38.235Z,14380.00
2019-05-09T11:07:58.869Z,12472.00
2019-05-09T11:08:38.097Z,9476.00
2019-05-09T11:09:38.895Z,10192.00
2019-05-09T11:10:36.099Z,11056.00
2019-05-09T11:11:36.124Z,14012.00
2019-05-09T11:12:36.055Z,18176.00
2019-05-09T11:13:58.772Z,19968.00
2019-05-09T11:14:37.478Z,19360.00
2019-05-09T11:15:37.517Z,19104.00
2019-05-09T11:16:42.953Z,15544.00
2019-05-09T11:17:35.959Z,12444.00
2019-05-09T11:18:35.940Z,11736.00
2019-05-09T11:19:58.726Z,14200.00
2019-05-09T11:20:35.917Z,18688.00
2019-05-09T11:21:38.751Z,17984.00
2019-05-09T11:22:38.388Z,16024.00
2019-05-09T11:23:35.862Z,14096.00
2019-05-09T11:24:45.484Z,11740.00
2019-05-09T11:25:58.075Z,11272.00
2019-05-09T11:26:35.809Z,12128.00
2019-05-09T11:27:35.792Z,12356.00
2019-05-09T11:28:35.773Z,11484.00
2019-05-09T11:29:35.752Z,9800.00
2019-05-09T11:30:35.743Z,8724.00
2019-05-09T11:31:58.701Z,7796.00
2019-05-09T11:32:35.726Z,6952.00
2019-05-09T11:33:38.447Z,6264.00
2019-05-09T11:34:37.575Z,6536.00
2019-05-09T11:35:37.786Z,7164.00
2019-05-09T11:36:37.820Z,10488.00
2019-05-09T11:37:58.734Z,12096.00
2019-05-09T11:38:39.887Z,12468.00
2019-05-09T11:39:41.792Z,13020.00
2019-05-09T11:40:37.889Z,14564.00
2019-05-09T11:41:38.162Z,15212.00
2019-05-09T11:42:37.893Z,14988.00
2019-05-09T11:43:59.202Z,14136.00
2019-05-09T11:44:35.504Z,14176.00
2019-05-09T11:45:35.487Z,15796.00
2019-05-09T11:46:37.995Z,15656.00
2019-05-09T11:47:44.758Z,16312.00
2019-05-09T11:48:38.024Z,17824.00
2019-05-09T11:49:57.846Z,17920.00
2019-05-09T11:50:35.406Z,16104.00
2019-05-09T11:51:35.382Z,11016.00
2019-05-09T11:52:38.076Z,9952.00
2019-05-09T11:53:35.348Z,10580.00
2019-05-09T11:54:35.331Z,13320.00
2019-05-09T11:55:57.851Z,16264.00
2019-05-09T11:56:35.294Z,15440.00
2019-05-09T11:57:38.181Z,13100.00
2019-05-09T11:58:35.260Z,10984.00
2019-05-09T11:59:37.764Z,10192.00
2019-05-09T12:00:35.221Z,9304.00
2019-05-09T12:01:58.509Z,9404.00
2019-05-09T12:02:35.189Z,9412.00
2019-05-09T12:03:35.166Z,9224.00
2019-05-09T12:04:35.152Z,9260.00
2019-05-09T12:05:35.133Z,9424.00
2019-05-09T12:06:35.124Z,9332.00
2019-05-09T12:07:58.229Z,9000.00
2019-05-09T12:08:35.094Z,8560.00
2019-05-09T12:09:35.059Z,9344.00
2019-05-09T12:10:35.040Z,10248.00
2019-05-09T12:11:38.767Z,10732.00
2019-05-09T12:12:35.046Z,10904.00
2019-05-09T12:13:58.227Z,11028.00
2019-05-09T12:14:34.993Z,11232.00
2019-05-09T12:15:34.956Z,11528.00
2019-05-09T12:16:34.947Z,11424.00
2019-05-09T12:17:49.954Z,11168.00
2019-05-09T12:18:34.940Z,10324.00
2019-05-09T12:20:09.133Z,9444.00
2019-05-09T12:20:34.860Z,8424.00